Time;durP1;ratioP1;P1;durP2;ratioP2;P2;SDS_P1;SDS_P2;PMS_P1;PMS_P2;Temp;Humidity;BMP_temperature;BMP_pressure;BME280_temperature;BME280_humidity;BME280_pressure;Samples;Min_cycle;Max_cycle;Signal;HPM_P1;HPM_P2
2022/05/27 02:51:30;;;;;;;;;2.00;1.00;;;;;16.52;100.00;100969.28;6367135;22;45505;-93
2022/05/27 02:54:30;;;;;;;;;3.67;1.33;;;;;16.58;100.00;100981.81;6337955;22;47215;-92
2022/05/27 02:57:11;;;;;;;;;1.00;1.00;;;;;16.56;100.00;100978.22;6338289;22;45751;-91
2022/05/27 02:59:38;;;;;;;;;1.00;1.00;;;;;16.52;100.00;100964.00;6339243;22;45367;-92
2022/05/27 03:02:09;;;;;;;;;0.33;0.33;;;;;16.45;100.00;100949.72;6339109;22;45467;-92
2022/05/27 03:04:36;;;;;;;;;2.00;0.33;;;;;16.59;100.00;100968.63;6367770;22;46225;-93
2022/05/27 03:07:24;;;;;;;;;1.67;1.67;;;;;16.60;100.00;100972.13;6374796;22;45443;-92
2022/05/27 03:10:16;;;;;;;;;2.33;1.00;;;;;16.61;100.00;100964.25;6347784;22;45351;-92
2022/05/27 03:12:46;;;;;;;;;1.67;1.00;;;;;16.63;100.00;100959.88;6347639;22;45322;-91
2022/05/27 03:15:50;;;;;;;;;1.00;1.00;;;;;16.65;100.00;100967.84;6347410;22;47234;-91
2022/05/27 03:18:25;;;;;;;;;;;;;;;;;;;;;
2022/05/27 03:21:21;;;;;;;;;4.00;1.00;;;;;16.67;100.00;100974.09;6207816;22;68035;-93
2022/05/27 03:24:18;;;;;;;;;4.00;1.00;;;;;16.65;100.00;100951.94;6182656;22;45529;-93
2022/05/27 03:27:02;;;;;;;;;2.00;2.00;;;;;16.73;100.00;100971.56;6182785;22;47056;-93
2022/05/27 03:29:30;;;;;;;;;1.00;1.00;;;;;16.71;100.00;100965.34;6183209;22;45385;-93
2022/05/27 03:32:29;;;;;;;;;1.33;1.33;;;;;16.68;100.00;100969.66;6182826;22;45339;-93
2022/05/27 03:35:07;;;;;;;;;3.00;1.00;;;;;16.70;100.00;100968.84;6182709;22;45462;-94
2022/05/27 03:37:40;;;;;;;;;4.00;4.00;;;;;16.64;100.00;100958.13;6182659;22;47060;-93
2022/05/27 03:40:14;;;;;;;;;4.00;3.00;;;;;16.73;100.00;100963.63;6182225;22;46043;-92
2022/05/27 03:42:41;;;;;;;;;3.00;2.00;;;;;16.71;100.00;100962.69;6183023;22;45689;-94
2022/05/27 03:45:09;;;;;;;;;3.00;2.00;;;;;16.73;100.00;100971.56;6182421;22;45401;-94
2022/05/27 03:47:36;;;;;;;;;3.00;3.00;;;;;16.57;100.00;100953.53;6182745;22;48029;-93
2022/05/27 03:50:06;;;;;;;;;1.67;1.67;;;;;16.61;100.00;100963.34;6182149;22;45492;-93
2022/05/27 03:52:41;;;;;;;;;3.00;3.00;;;;;16.67;100.00;100973.19;6208149;22;45369;-92
2022/05/27 03:55:11;;;;;;;;;2.00;2.00;;;;;16.61;100.00;100964.25;6314602;22;45211;-93
2022/05/27 03:57:39;;;;;;;;;4.00;1.00;;;;;16.64;100.00;100960.78;6315952;22;47027;-94
2022/05/27 04:00:06;;;;;;;;;1.33;1.33;;;;;16.59;100.00;100954.47;6316312;22;45552;-94
2022/05/27 04:02:32;;;;;;;;;4.00;2.00;;;;;16.60;100.00;100957.13;6317227;22;45281;-93
2022/05/27 04:04:57;;;;;;;;;1.00;1.00;;;;;16.62;100.00;100958.06;6311209;22;45296;-93
2022/05/27 04:07:22;;;;;;;;;2.33;2.33;;;;;16.63;100.00;100958.97;6306478;22;48015;-93
2022/05/27 04:09:48;;;;;;;;;2.00;2.00;;;;;16.57;100.00;100946.47;6307048;22;45172;-93
2022/05/27 04:12:16;;;;;;;;;4.33;4.00;;;;;16.62;100.00;100966.00;6307517;22;45507;-93
2022/05/27 04:14:52;;;;;;;;;4.00;3.33;;;;;16.56;100.00;100950.00;6307290;22;45367;-94
2022/05/27 04:17:36;;;;;;;;;6.00;5.33;;;;;16.66;100.00;100972.28;6335227;22;45458;-94
2022/05/27 04:20:06;;;;;;;;;7.00;6.00;;;;;16.59;100.00;100968.63;6305083;22;45365;-93
2022/05/27 04:22:32;;;;;;;;;3.67;3.67;;;;;16.60;100.00;100970.38;6306897;22;45466;-94
2022/05/27 04:24:58;;;;;;;;;3.33;3.00;;;;;16.59;100.00;100968.63;6306688;22;45477;-93
2022/05/27 04:27:25;;;;;;;;;6.33;5.00;;;;;16.68;100.00;100985.56;6305552;22;46478;-93
2022/05/27 04:29:52;;;;;;;;;3.00;3.00;;;;;16.65;100.00;100981.09;6307184;22;45690;-94
2022/05/27 04:32:18;;;;;;;;;3.67;3.67;;;;;16.69;100.00;100988.28;6306092;22;45332;-93
2022/05/27 04:34:44;;;;;;;;;2.33;2.33;;;;;16.56;100.00;100964.97;6334522;22;45402;-92
2022/05/27 04:37:11;;;;;;;;;2.00;2.00;;;;;16.71;100.00;100993.59;6306444;22;46756;-93
2022/05/27 04:39:37;;;;;;;;;2.00;2.00;;;;;16.52;100.00;100964.91;6306555;22;45414;-92
2022/05/27 04:42:03;;;;;;;;;2.00;2.00;;;;;16.63;100.00;100983.72;6311557;22;45233;-93
2022/05/27 04:44:29;;;;;;;;;2.67;2.00;;;;;16.62;100.00;100981.91;6342969;22;45266;-93
2022/05/27 04:46:54;;;;;;;;;1.67;1.67;;;;;16.59;100.00;100979.22;6315532;22;47632;-92
2022/05/27 04:52:07;;;;;;;;;2.33;2.33;;;;;16.62;100.00;100983.69;6372156;22;45590;-93
2022/05/27 04:54:32;;;;;;;;;1.33;1.33;;;;;16.53;100.00;100976.41;6337512;22;45380;-92
2022/05/27 04:57:01;;;;;;;;;3.33;1.67;;;;;16.55;100.00;100979.97;6337345;22;47313;-94
2022/05/27 04:59:26;;;;;;;;;7.00;4.00;;;;;16.55;100.00;100981.72;6338937;22;45191;-92
2022/05/27 05:01:51;;;;;;;;;4.00;2.00;;;;;16.51;100.00;100976.38;6338571;22;45314;-93
2022/05/27 05:04:17;;;;;;;;;4.00;4.00;;;;;16.61;100.00;100989.84;6338475;22;45332;-92
2022/05/27 05:06:43;;;;;;;;;10.33;5.00;;;;;16.62;100.00;100987.22;6364545;22;47079;-93
2022/05/27 05:09:09;;;;;;;;;5.67;4.00;;;;;16.63;100.00;100996.06;6338273;22;45883;-93
2022/05/27 05:11:34;;;;;;;;;7.67;7.33;;;;;16.64;100.00;100989.91;6338214;22;45329;-94
2022/05/27 05:14:00;;;;;;;;;9.00;6.33;;;;;16.56;100.00;100971.19;6338757;22;45499;-91
2022/05/27 05:16:25;;;;;;;;;5.33;4.00;;;;;16.67;100.00;100994.41;6364543;22;45803;-91
2022/05/27 05:18:50;;;;;;;;;3.33;3.00;;;;;16.64;100.00;100982.88;6364978;22;45301;-91
2022/05/27 05:21:16;;;;;;;;;3.67;3.33;;;;;16.72;100.00;100991.00;6335469;22;45454;-91
2022/05/27 05:23:41;;;;;;;;;5.00;5.00;;;;;16.75;100.00;100992.84;6364483;22;45282;-90
2022/05/27 05:26:07;;;;;;;;;5.33;4.67;;;;;16.74;100.00;100986.63;6363922;22;47035;-91
2022/05/27 05:28:32;;;;;;;;;5.67;4.00;;;;;16.76;100.00;100989.31;6363888;22;45241;-90
2022/05/27 05:30:57;;;;;;;;;5.33;5.33;;;;;16.79;100.00;100988.47;6366902;22;45339;-91
2022/05/27 05:33:23;;;;;;;;;9.00;5.67;;;;;16.79;100.00;100986.72;6340139;22;45425;-90
2022/05/27 05:35:48;;;;;;;;;6.00;5.00;;;;;16.82;100.00;100981.50;6378604;22;60849;-90
2022/05/27 05:38:13;;;;;;;;;12.67;7.00;;;;;16.81;100.00;100977.06;6381772;22;45308;-90
2022/05/27 05:40:39;;;;;;;;;9.33;6.67;;;;;16.83;100.00;100977.06;6382139;22;45316;-89
2022/05/27 05:43:05;;;;;;;;;10.33;8.00;;;;;16.85;100.00;100978.91;6380941;22;45332;-89
2022/05/27 05:45:31;;;;;;;;;9.33;8.00;;;;;16.84;100.00;100976.22;6384607;22;45135;-90
2022/05/27 05:47:56;;;;;;;;;9.33;6.00;;;;;16.89;100.00;100984.28;6357202;22;45234;-92
2022/05/27 05:50:22;;;;;;;;;9.67;6.67;;;;;16.86;100.00;100980.72;6388733;22;44928;-92
2022/05/27 05:52:47;;;;;;;;;11.00;8.67;;;;;16.92;100.00;100997.63;6391569;22;44826;-90
2022/05/27 05:55:15;;;;;;;;;11.33;9.33;;;;;16.94;100.00;100987.94;6390991;22;46339;-93
2022/05/27 05:57:44;;;;;;;;;11.67;8.00;;;;;16.91;100.00;100986.13;6392358;22;44731;-92
2022/05/27 06:00:13;;;;;;;;;8.00;8.00;;;;;16.92;100.00;100985.25;6389812;22;45210;-90
2022/05/27 06:02:40;;;;;;;;;11.33;7.00;;;;;16.94;100.00;100995.91;6361417;22;45499;-91
2022/05/27 06:05:06;;;;;;;;;8.33;3.67;;;;;16.91;100.00;100991.41;6389387;22;45400;-91
2022/05/27 06:07:32;;;;;;;;;4.00;4.00;;;;;16.92;100.00;100998.53;6388070;22;45228;-89
2022/05/27 06:09:59;;;;;;;;;4.33;4.00;;;;;16.90;100.00;100994.03;6382381;22;45359;-90
2022/05/27 06:12:25;;;;;;;;;4.00;4.00;;;;;16.87;100.00;100997.53;6382827;22;45270;-91
2022/05/27 06:14:53;;;;;;;;;6.67;5.67;;;;;16.89;100.00;100994.88;6373412;22;47083;-91
2022/05/27 06:17:18;;;;;;;;;5.00;4.00;;;;;16.86;100.00;100988.66;6378670;22;45289;-92
2022/05/27 06:19:43;;;;;;;;;4.00;3.00;;;;;16.86;100.00;100985.09;6347774;22;45241;-92
2022/05/27 06:22:09;;;;;;;;;2.67;2.67;;;;;16.86;100.00;100986.00;6373977;22;45241;-91
2022/05/27 06:24:35;;;;;;;;;3.67;3.67;;;;;16.84;100.00;100990.38;6345553;22;48159;-92
2022/05/27 06:27:00;;;;;;;;;4.00;3.00;;;;;16.86;100.00;100996.63;6349783;22;45525;-92
2022/05/27 06:34:53;;;;;;;;;3.00;2.00;;;;;16.91;100.00;101001.13;6380703;22;45487;-92
2022/05/27 06:37:21;;;;;;;;;4.33;3.00;;;;;16.93;100.00;101008.25;6349065;22;45431;-91
2022/05/27 06:39:48;;;;;;;;;3.67;3.67;;;;;16.96;100.00;101002.13;6381397;22;45625;-92
2022/05/27 06:42:15;;;;;;;;;5.33;4.33;;;;;17.00;100.00;101005.75;6381100;22;45310;-91
2022/05/27 06:44:41;;;;;;;;;5.33;4.00;;;;;17.04;100.00;101004.94;6375828;22;45666;-90
2022/05/27 06:47:08;;;;;;;;;6.00;5.00;;;;;17.06;100.00;101008.56;6373686;22;45265;-91
2022/05/27 06:49:35;;;;;;;;;4.67;4.00;;;;;17.11;100.00;101006.88;6374480;22;45568;-91
2022/05/27 06:52:01;;;;;;;;;4.33;4.00;;;;;17.12;100.00;100997.16;6376909;22;45451;-91
2022/05/27 06:54:27;;;;;;;;;8.00;4.67;;;;;17.19;100.00;101009.72;6380043;22;46276;-91
2022/05/27 06:56:52;;;;;;;;;8.33;5.00;;;;;17.22;100.00;101001.84;6378763;22;45709;-91
2022/05/27 06:59:20;;;;;;;;;5.00;4.33;;;;;17.31;100.00;100998.50;6377650;22;45244;-91
2022/05/27 07:01:46;;;;;;;;;5.67;5.67;;;;;17.40;100.00;100987.19;6379393;22;45507;-91
2022/05/27 07:04:12;;;;;;;;;7.00;5.00;;;;;17.53;100.00;100994.53;6374198;22;45193;-90
2022/05/27 07:06:43;;;;;;;;;7.67;7.00;;;;;17.70;100.00;100995.75;6374060;22;45192;-91
2022/05/27 07:09:16;;;;;;;;;5.67;5.67;;;;;17.94;100.00;100991.75;6378320;22;44706;-91
2022/05/27 07:11:45;;;;;;;;;6.00;5.33;;;;;18.24;100.00;100987.94;6382055;22;45407;-91
2022/05/27 07:14:12;;;;;;;;;9.67;6.00;;;;;18.49;100.00;100969.72;6352250;22;45566;-91
2022/05/27 07:16:38;;;;;;;;;12.00;8.33;;;;;18.74;100.00;100972.75;6321462;22;45341;-92
2022/05/27 07:19:04;;;;;;;;;8.00;6.67;;;;;18.94;100.00;100966.81;6374924;22;45397;-91
2022/05/27 07:21:29;;;;;;;;;9.33;6.00;;;;;19.08;100.00;100966.13;6374986;22;45640;-89
2022/05/27 07:23:56;;;;;;;;;5.67;5.67;;;;;19.17;100.00;100960.91;6374020;22;45844;-91
2022/05/27 07:26:23;;;;;;;;;7.33;4.00;;;;;19.24;100.00;100959.28;6376920;22;45394;-91
2022/05/27 07:28:48;;;;;;;;;7.00;6.00;;;;;19.40;100.00;100968.38;6345720;22;45505;-89
2022/05/27 07:31:14;;;;;;;;;7.33;6.00;;;;;19.47;100.00;100965.75;6348079;22;45274;-92
2022/05/27 07:33:40;;;;;;;;;7.67;7.00;;;;;19.61;100.00;100966.78;6374270;22;45429;-92
2022/05/27 07:36:07;;;;;;;;;8.67;6.33;;;;;19.70;100.00;100978.44;6349206;22;45140;-92
2022/05/27 07:38:32;;;;;;;;;8.33;5.33;;;;;19.63;100.00;100959.75;6365997;22;45194;-92
2022/05/27 07:40:58;;;;;;;;;6.00;4.67;;;;;19.66;100.00;100974.88;6378835;22;45570;-91
2022/05/27 07:43:23;;;;;;;;;9.00;5.33;;;;;19.63;100.00;100964.16;6379425;22;45456;-92
2022/05/27 07:45:49;;;;;;;;;6.67;6.00;;;;;19.64;100.00;100965.94;6369216;22;45311;-91
2022/05/27 07:48:14;;;;;;;;;9.00;7.33;;;;;19.64;100.00;100966.84;6365968;22;45373;-93
2022/05/27 07:50:40;;;;;;;;;7.00;7.00;;;;;19.56;100.00;100963.19;6365174;22;45450;-93
2022/05/27 07:53:06;;;;;;;;;4.67;4.67;;;;;19.52;100.00;100978.25;6373654;22;46393;-92
2022/05/27 07:58:07;;;;;;;;;6.00;4.67;;;;;19.31;100.00;100962.91;6384110;22;45925;-92
2022/05/27 08:05:43;;;;;;;;;7.33;4.00;;;;;19.12;100.00;100962.63;6397941;22;45577;-88
2022/05/27 08:08:09;;;;;;;;;5.00;5.00;;;;;19.04;100.00;100956.34;6393534;22;44747;-88
2022/05/27 08:10:37;;;;;;;;;4.67;4.67;;;;;19.03;100.00;100957.19;6384488;22;45746;-89
2022/05/27 08:13:03;;;;;;;;;4.00;4.00;;;;;19.03;100.00;100962.50;6374730;22;47338;-91
2022/05/27 08:15:28;;;;;;;;;5.00;5.00;;;;;18.99;100.00;100965.13;6382776;22;45330;-94
2022/05/27 08:17:55;;;;;;;;;4.00;4.00;;;;;18.93;100.00;100967.72;6414678;22;45374;-92
2022/05/27 08:20:23;;;;;;;;;2.00;2.00;;;;;18.87;100.00;100962.28;6384884;22;45376;-91
2022/05/27 08:25:16;;;;;;;;;3.33;3.00;;;;;18.83;100.00;100974.66;6386437;22;44700;-94
2022/05/27 08:27:42;;;;;;;;;4.00;2.67;;;;;18.74;100.00;100972.75;6357491;22;44634;-94
2022/05/27 08:30:10;;;;;;;;;7.33;3.67;;;;;18.81;100.00;100983.50;6384865;22;44715;-93
2022/05/27 08:32:37;;;;;;;;;5.67;4.00;;;;;18.70;100.00;100968.28;6355783;22;47343;-94
2022/05/27 08:38:03;;;;;;;;;3.33;3.33;;;;;18.70;100.00;100978.91;6382070;22;45347;-94
2022/05/27 08:40:35;;;;;;;;;3.67;3.00;;;;;18.68;100.00;100982.41;6380289;22;45198;-94
2022/05/27 08:43:15;;;;;;;;;4.67;3.67;;;;;18.65;100.00;100977.94;6378177;22;45500;-92
2022/05/27 08:46:07;;;;;;;;;4.00;4.00;;;;;18.67;100.00;100981.50;6377218;22;45578;-93
2022/05/27 08:48:38;;;;;;;;;3.33;3.33;;;;;18.65;100.00;100972.63;6353413;22;45593;-92
2022/05/27 08:51:15;;;;;;;;;2.50;2.50;;;;;18.71;100.00;100983.34;6346846;22;45387;-93
2022/05/27 08:53:41;;;;;;;;;4.00;3.00;;;;;18.72;100.00;100978.91;6348327;22;47008;-92
2022/05/27 08:59:37;;;;;;;;;4.67;3.00;;;;;18.71;100.00;100979.81;6382550;22;45234;-92
2022/05/27 09:02:08;;;;;;;;;5.00;3.33;;;;;18.71;100.00;100980.69;6381984;22;45248;-92
2022/05/27 09:04:43;;;;;;;;;2.00;1.00;;;;;18.72;100.00;100979.81;6378674;22;45495;-93
2022/05/27 09:07:27;;;;;;;;;3.67;3.67;;;;;18.71;100.00;100985.13;6349955;22;45354;-92
2022/05/27 09:09:53;;;;;;;;;2.00;2.00;;;;;18.68;100.00;100979.75;6356905;22;45455;-93
2022/05/27 09:12:31;;;;;;;;;2.00;2.00;;;;;18.71;100.00;100985.13;6383186;22;45201;-93
2022/05/27 09:15:07;;;;;;;;;4.33;2.00;;;;;18.74;100.00;100983.38;6357027;22;46912;-92
2022/05/27 09:18:03;;;;;;;;;4.00;3.00;;;;;18.76;100.00;100986.97;6385498;22;45237;-92
2022/05/27 09:20:31;;;;;;;;;2.00;2.00;;;;;18.83;100.00;100984.41;6248714;22;45371;-92
2022/05/27 09:23:21;;;;;;;;;5.00;3.00;;;;;18.91;100.00;100987.19;6231165;22;45276;-92
2022/05/27 09:26:01;;;;;;;;;4.00;3.00;;;;;18.94;100.00;100981.91;6254122;22;45449;-93
2022/05/27 09:28:48;;;;;;;;;4.00;4.00;;;;;18.99;100.00;100980.22;6255416;22;44698;-93
2022/05/27 09:31:26;;;;;;;;;2.33;2.33;;;;;19.10;100.00;100981.25;6227405;22;45383;-94
2022/05/27 09:33:54;;;;;;;;;4.00;4.00;;;;;19.23;100.00;100975.22;6259601;22;44915;-95
2022/05/27 09:36:28;;;;;;;;;3.67;3.67;;;;;19.40;100.00;100976.34;6228713;22;47035;-93
2022/05/27 09:38:58;;;;;;;;;3.67;3.67;;;;;19.57;100.00;100975.63;6229562;22;45860;-90
2022/05/27 09:41:37;;;;;;;;;3.00;3.00;;;;;19.73;100.00;100967.81;6230158;22;45323;-94
2022/05/27 09:44:11;;;;;;;;;2.67;2.00;;;;;19.81;100.00;100967.91;6255151;22;45414;-93
2022/05/27 09:46:36;;;;;;;;;3.00;3.00;;;;;19.84;100.00;100960.81;6227233;22;47333;-91
2022/05/27 09:49:02;;;;;;;;;4.00;2.33;;;;;19.91;100.00;100960.91;6250125;22;45347;-90
2022/05/27 09:51:31;;;;;;;;;3.00;3.00;;;;;19.98;100.00;100968.97;6254704;22;45450;-91
2022/05/27 09:54:04;;;;;;;;;2.67;1.67;;;;;20.00;100.00;100963.63;6225824;22;45418;-90
2022/05/27 09:56:43;;;;;;;;;4.00;4.00;;;;;20.13;100.00;100958.44;6263393;22;45501;-91
2022/05/27 09:59:21;;;;;;;;;7.00;3.00;;;;;20.25;100.00;100961.25;6354980;22;45248;-90
2022/05/27 10:01:46;;;;;;;;;3.00;3.00;;;;;20.32;100.00;100957.75;6357691;22;45253;-90
2022/05/27 10:04:14;;;;;;;;;5.00;2.00;;;;;20.41;100.00;100956.03;6356856;22;45515;-90
2022/05/27 10:06:40;;;;;;;;;3.33;3.33;;;;;20.47;100.00;100949.84;6381322;22;46575;-90
2022/05/27 10:09:23;;;;;;;;;3.67;3.67;;;;;20.60;100.00;100948.16;6381683;22;45267;-89
2022/05/27 10:11:56;;;;;;;;;5.00;4.00;;;;;20.95;100.00;100947.47;6381431;22;45320;-90
2022/05/27 10:14:28;;;;;;;;;3.67;3.00;;;;;21.25;100.00;100939.66;6352247;22;44952;-91
2022/05/27 10:17:12;;;;;;;;;3.00;3.00;;;;;21.48;100.00;100944.16;6347865;22;47097;-91
2022/05/27 10:19:39;;;;;;;;;4.67;4.00;;;;;21.54;100.00;100936.16;6348968;22;45238;-90
2022/05/27 10:22:08;;;;;;;;;5.00;4.00;;;;;21.53;100.00;100944.19;6378295;22;45189;-91
2022/05/27 10:24:41;;;;;;;;;4.00;3.00;;;;;21.55;100.00;100953.06;6350738;22;45368;-90
2022/05/27 10:27:15;;;;;;;;;4.33;2.00;;;;;21.48;100.00;100938.84;6380256;22;45434;-91
2022/05/27 10:29:53;;;;;;;;;4.67;3.00;;;;;21.50;100.00;100934.38;6352417;22;46091;-91
2022/05/27 10:32:40;;;;;;;;;3.33;3.33;;;;;21.65;100.00;100936.19;6376125;22;45356;-91
2022/05/27 10:35:15;;;;;;;;;4.67;4.00;;;;;21.91;100.00;100933.59;6377676;22;45267;-92
2022/05/27 10:38:09;;;;;;;;;5.33;4.00;;;;;22.17;100.00;100938.06;6348513;22;45376;-90
2022/05/27 10:40:41;;;;;;;;;6.33;2.00;;;;;22.54;100.00;100937.13;6380272;22;44720;-93
2022/05/27 10:43:30;;;;;;;;;4.00;4.00;;;;;22.63;100.00;100931.75;6379911;22;45272;-91
2022/05/27 10:45:58;;;;;;;;;5.33;4.67;;;;;22.58;100.00;100936.22;6358696;22;45716;-93
2022/05/27 10:48:45;;;;;;;;;5.67;4.00;;;;;22.67;100.00;100943.34;6358572;22;45349;-92
2022/05/27 10:51:49;;;;;;;;;6.00;5.00;;;;;22.72;100.00;100952.31;6350141;22;45493;-92
2022/05/27 10:54:34;;;;;;;;;2.00;2.00;;;;;23.04;100.00;100946.88;6346528;22;45293;-90
2022/05/27 11:03:37;;;;;;;;;2.00;2.00;;;;;23.48;100.00;100943.97;6389485;22;45213;-93
2022/05/27 11:06:27;;;;;;;;;2.00;2.00;;;;;23.53;100.00;100955.56;6365020;22;44704;-94
2022/05/27 11:09:16;;;;;;;;;4.00;4.00;;;;;24.15;100.00;100956.03;6362545;22;44830;-88
2022/05/27 11:12:08;;;;;;;;;3.00;3.00;;;;;24.65;100.00;100950.25;6348759;22;47282;-92
2022/05/27 11:15:13;;;;;;;;;6.00;4.00;;;;;25.35;100.00;100947.69;6392063;22;44672;-93
2022/05/27 11:17:50;;;;;;;;;5.33;3.67;;;;;25.75;100.00;100952.50;6391950;22;44816;-92
2022/05/27 11:20:39;;;;;;;;;3.33;3.33;;;;;25.78;100.00;100965.03;6394755;22;45382;-91
2022/05/27 11:23:31;;;;;;;;;2.33;2.33;;;;;25.69;100.00;100973.19;6364897;22;46246;-93
2022/05/27 11:26:11;;;;;;;;;4.00;4.00;;;;;25.42;100.00;100971.75;6363332;22;44640;-91
2022/05/27 11:29:04;;;;;;;;;5.33;4.00;;;;;25.09;100.00;100992.78;6363370;22;44709;-92
2022/05/27 11:32:01;;;;;;;;;4.67;4.67;;;;;24.78;100.00;100980.53;6361082;22;44814;-89
2022/05/27 11:34:48;;;;;;;;;3.00;3.00;;;;;24.50;100.00;100978.16;6361854;22;45144;-92
2022/05/27 11:37:48;;;;;;;;;4.00;4.00;;;;;24.32;100.00;100966.69;6359581;22;45225;-93
2022/05/27 11:40:33;;;;;;;;;3.00;2.67;;;;;24.10;100.00;100965.03;6332068;22;45231;-91
2022/05/27 11:43:40;;;;;;;;;5.00;5.00;;;;;23.86;100.00;100961.63;6330585;22;45082;-91
2022/05/27 11:46:39;;;;;;;;;4.00;3.00;;;;;23.62;100.00;100960.00;6268438;22;46949;-91
2022/05/27 11:49:32;;;;;;;;;5.67;5.00;;;;;23.36;100.00;100959.22;6268663;22;45188;-91
2022/05/27 11:52:29;;;;;;;;;3.33;3.33;;;;;23.08;100.00;100949.53;6268225;22;44682;-92
2022/05/27 11:55:31;;;;;;;;;3.00;3.00;;;;;22.82;100.00;100945.13;6294531;22;45333;-87
2022/05/27 11:58:09;;;;;;;;;3.00;3.00;;;;;22.60;100.00;100939.78;6294186;22;45657;-93
2022/05/27 12:00:40;;;;;;;;;2.67;2.33;;;;;22.41;100.00;100934.50;6265387;22;45348;-93
2022/05/27 12:03:10;;;;;;;;;4.00;2.00;;;;;22.26;100.00;100935.41;6291694;22;45298;-93
2022/05/27 12:05:45;;;;;;;;;3.00;3.00;;;;;22.21;100.00;100934.50;6291232;22;45439;-87
2022/05/27 12:08:31;;;;;;;;;5.00;3.00;;;;;22.31;100.00;100932.72;6265421;22;47083;-92
2022/05/27 12:11:11;;;;;;;;;1.00;1.00;;;;;22.37;100.00;100934.50;6266912;22;45242;-91
2022/05/27 12:13:48;;;;;;;;;2.00;2.00;;;;;22.41;100.00;100933.59;6266210;22;45420;-92
2022/05/27 12:16:21;;;;;;;;;4.33;2.67;;;;;22.47;100.00;100927.34;6310858;22;44917;-89
2022/05/27 12:19:07;;;;;;;;;2.00;1.33;;;;;22.57;100.00;100921.09;6361827;22;45304;-91
2022/05/27 12:21:43;;;;;;;;;2.67;2.67;;;;;22.65;100.00;100927.28;6334509;22;44834;-91
2022/05/27 12:24:22;;;;;;;;;1.00;1.00;;;;;22.80;100.00;100928.19;6376387;22;44687;-91
2022/05/27 12:26:51;;;;;;;;;1.00;1.00;;;;;23.17;100.00;100916.44;6413761;22;45345;-92
2022/05/27 12:29:21;;;;;;;;;1.33;1.33;;;;;24.84;100.00;100902.63;6393789;22;48138;-91
2022/05/27 12:31:47;;;;;;;;;1.33;1.00;;;;;29.23;100.00;100844.03;6423615;22;45271;-92
2022/05/27 12:36:47;;;;;;;;;0.67;0.67;;;;;33.36;100.00;101041.63;6261088;22;2123062;-91
2022/05/27 12:39:23;;;;;;;;;2.33;0.00;;;;;32.44;100.00;101157.88;6357720;22;45159;-90
2022/05/27 12:41:48;;;;;;;;;1.00;1.00;;;;;31.32;100.00;101197.25;6355317;22;45122;-92
2022/05/27 12:44:19;;;;;;;;;4.33;1.00;;;;;30.22;100.00;101183.63;6355204;22;44729;-91
2022/05/27 12:46:50;;;;;;;;;1.00;1.00;;;;;29.37;100.00;101145.47;6347656;22;45416;-90
2022/05/27 12:49:32;;;;;;;;;0.33;0.33;;;;;28.52;100.00;101133.19;6347845;22;45564;-90
2022/05/27 12:51:58;;;;;;;;;1.00;1.00;;;;;27.84;100.00;101110.38;6353697;22;45286;-92
2022/05/27 12:54:41;;;;;;;;;0.33;0.33;;;;;27.33;100.00;101071.88;6357042;22;44797;-91
2022/05/27 13:10:45;;;;;;;;;1.00;0.67;;;;;34.82;100.00;100878.25;6354277;22;45227;-91
2022/05/27 13:13:14;;;;;;;;;1.00;0.33;;;;;40.12;100.00;100979.81;6350795;22;45349;-91
2022/05/27 13:16:03;;;;;;;;;0.00;0.00;;;;;43.08;98.07;101735.78;6348962;22;45374;-90
2022/05/27 13:18:31;;;;;;;;;2.67;1.00;;;;;43.54;84.33;101979.00;6337500;22;45813;-89
2022/05/27 13:21:11;;;;;;;;;0.00;0.00;;;;;42.88;80.63;102000.47;6343276;22;45365;-93
2022/05/27 13:23:51;;;;;;;;;0.00;0.00;;;;;46.16;81.38;101997.44;6342349;22;46403;-92
2022/05/27 13:26:35;;;;;;;;;1.33;0.00;;;;;49.65;75.62;102040.47;6344312;22;45291;-92
2022/05/27 13:29:00;;;;;;;;;1.33;0.33;;;;;51.43;68.23;102086.78;6340466;22;45252;-92
2022/05/27 13:31:42;;;;;;;;;0.00;0.00;;;;;51.28;62.93;102101.44;6339426;22;44720;-92
2022/05/27 13:34:24;;;;;;;;;0.00;0.00;;;;;50.01;58.29;102114.84;6341563;22;47585;-93
2022/05/27 13:37:03;;;;;;;;;1.00;0.00;;;;;48.92;58.53;102107.28;6341098;22;45551;-93
2022/05/27 13:39:36;;;;;;;;;0.00;0.00;;;;;50.04;57.71;102106.19;6343402;22;45315;-93
2022/05/27 13:42:03;;;;;;;;;0.00;0.00;;;;;51.60;57.45;102114.81;6346417;22;45408;-90
2022/05/27 13:44:30;;;;;;;;;0.00;0.00;;;;;53.03;55.91;102112.63;6348147;22;45359;-94
2022/05/27 13:46:58;;;;;;;;;0.00;0.00;;;;;54.26;53.03;102116.59;6348968;22;45249;-95
2022/05/27 13:49:31;;;;;;;;;0.00;0.00;;;;;55.43;50.58;102117.03;6350134;22;45261;-94
2022/05/27 13:51:59;;;;;;;;;0.00;0.00;;;;;55.31;49.40;102118.66;6343703;22;45232;-93
2022/05/27 13:54:34;;;;;;;;;0.00;0.00;;;;;55.38;48.29;102103.59;6343891;22;46162;-93
2022/05/27 13:57:09;;;;;;;;;0.00;0.00;;;;;55.99;46.22;102114.53;6339261;22;45298;-92
2022/05/27 13:59:42;;;;;;;;;0.00;0.00;;;;;56.60;45.37;102116.88;6341489;22;45281;-92
2022/05/27 14:02:40;;;;;;;;;0.00;0.00;;;;;57.19;43.69;102104.28;6343767;22;45518;-92
2022/05/27 14:05:28;;;;;;;;;0.00;0.00;;;;;57.72;42.95;102111.97;6343067;22;46193;-94
2022/05/27 14:07:56;;;;;;;;;0.00;0.00;;;;;57.94;41.14;102111.72;6335385;22;45848;-94
2022/05/27 14:10:39;;;;;;;;;0.00;0.00;;;;;56.67;39.61;102116.91;6337015;22;45459;-92
2022/05/27 14:13:21;;;;;;;;;0.00;0.00;;;;;53.45;39.38;102115.19;6345566;22;45362;-90
2022/05/27 14:15:47;;;;;;;;;0.00;0.00;;;;;53.34;41.15;102114.56;6347480;22;46966;-94
2022/05/27 14:18:27;;;;;;;;;0.00;0.00;;;;;54.27;41.80;102106.25;6346416;22;45552;-90
2022/05/27 14:23:38;;;;;;;;;0.00;0.00;;;;;55.25;39.99;102104.28;6342071;22;45287;-94
2022/05/27 14:26:06;;;;;;;;;0.00;0.00;;;;;55.65;37.99;102097.34;6337382;22;46109;-93
2022/05/27 14:28:39;;;;;;;;;0.00;0.00;;;;;56.13;38.91;102095.78;6356443;22;45310;-95
2022/05/27 14:31:14;;;;;;;;;1.00;1.00;;;;;56.78;38.45;102096.56;6356027;22;45336;-95
2022/05/27 14:33:43;;;;;;;;;0.00;0.00;;;;;54.91;36.81;102086.13;6357368;22;44776;-93
2022/05/27 14:36:13;;;;;;;;;0.00;0.00;;;;;54.09;37.47;102076.59;6354872;22;46844;-95
2022/05/27 14:38:42;;;;;;;;;0.00;0.00;;;;;53.67;37.19;102078.91;6356070;22;45192;-95
2022/05/27 14:41:15;;;;;;;;;0.00;0.00;;;;;51.90;36.82;102078.81;6353292;22;44679;-96
2022/05/27 14:43:43;;;;;;;;;1.33;0.00;;;;;49.86;38.21;102073.59;6354844;22;45406;-95
2022/05/27 14:46:15;;;;;;;;;0.00;0.00;;;;;48.74;39.22;102078.28;6350791;22;47543;-95
2022/05/27 14:48:43;;;;;;;;;2.00;0.00;;;;;46.86;39.24;102074.50;6351537;22;45308;-92
2022/05/27 14:51:12;;;;;;;;;2.00;2.00;;;;;44.61;39.91;102074.97;6338421;22;45306;-95
2022/05/27 14:53:37;;;;;;;;;1.00;1.00;;;;;42.38;40.93;102061.06;6351721;22;44742;-95
2022/05/27 14:56:02;;;;;;;;;0.67;0.67;;;;;40.66;42.06;102063.09;6348792;22;47058;-93
2022/05/27 14:58:34;;;;;;;;;1.67;1.00;;;;;39.16;43.24;102057.19;6343715;22;45262;-95
2022/05/27 15:01:00;;;;;;;;;2.67;2.67;;;;;37.86;43.95;102050.28;6340256;22;45645;-93
2022/05/27 15:03:28;;;;;;;;;2.00;2.00;;;;;36.69;45.02;102060.31;6351393;22;44754;-93
2022/05/27 15:06:06;;;;;;;;;15.33;15.33;;;;;35.62;45.75;102052.94;6350772;22;45411;-90
2022/05/27 15:08:33;;;;;;;;;2.33;2.33;;;;;34.54;46.98;102039.69;6339169;22;45325;-86
2022/05/27 15:11:09;;;;;;;;;2.33;2.00;;;;;33.61;48.79;102043.69;6336079;22;45353;-92
2022/05/27 15:13:47;;;;;;;;;3.00;2.00;;;;;32.75;49.60;102045.31;6337857;22;45547;-92
2022/05/27 15:16:31;;;;;;;;;2.00;2.00;;;;;32.10;50.50;102045.19;6347473;22;46146;-92
2022/05/27 15:19:16;;;;;;;;;1.33;1.33;;;;;31.30;51.92;102031.63;6342788;22;45253;-91
2022/05/27 15:21:45;;;;;;;;;1.00;1.00;;;;;30.86;52.92;102037.03;6348607;22;45303;-89
2022/05/27 15:24:31;;;;;;;;;3.00;1.00;;;;;30.40;53.75;102018.03;6347686;22;45383;-91
2022/05/27 15:35:45;;;;;;;;;0.33;0.33;;;;;28.53;55.34;101994.47;6349863;22;45454;-91